Aktualne dane pomiarowe

Uwaga, wersja testowa! Automatyczne pobieranie danych za pomocą narzędzi lub skryptów to umożliwiających jest zabronione.

Dane meteo z obszaru Polski uzyskane na podstawie depesz SYNOP pobieranych co godzinę z NWS. Najedź myszką na symbol przedstawiony w tabeli, aby uzyskać informacje co do jego znaczenia. Prosimy pamiętać, że to testowa wersja strony, która jeszcze nie jest ukończona. Stworzono również jest krótki FAQ dotyczący korzystania z tej podstrony Anomalie temperatury w chwili obecnej odniesione są do okresu referencyjnego 1951-2016. Okres ten będzie później zmieniony na 1981-2010. Kliknij ikonę aby pobrać plik CSV. Kliknij ikonę aby wygenerować mapę synoptyczną dla danego terminu.

Wybierz Datę:    

        

Tarnów (12575)

Dane terminowe dla wybranej stacji. Kliknij datę, aby otrzymać dane z tego terminu dla wszystkich stacji.

TemperaturaZachmurzenieWiatrCiśnienieOpadyPogoda
 Data t td wb tx tn tg rh  Nt Nl Cl Cm Ch ws wd g1 g2 wx mslp ppp ch 24h 12h t ww ww w1 w2  
2019-06-24 23:00:00 17.2 15.9 16.3--- 929.0--1wx---1025.51000.6 0.1---------
2019-06-24 22:00:00 17.8 16.3 16.7--- 9112.0--1wx--11025.81000.9 0.9---------
2019-06-24 21:00:00 18.3 16.3 16.9--- 8813.0--0---01025.61000.8 1.3---------
2019-06-24 20:00:00 19.1 16.3 17.1--- 8417.0--0----1025.21000.5 1.2---------
2019-06-24 19:00:00 21.0 16.4 17.9--- 7519.0--0---01024.61000.0 0.8---------
2019-06-24 18:00:00 23.0 16.5 18.6 25.9 21.7- 6722.0--1wx-811023.9 999.5 0.3- 0.012------
2019-06-24 17:00:00 23.9 16.2 18.8--- 6224.0--1wx--11023.6 999.3 0.0---------
2019-06-24 16:00:00 24.4 16.1 19.0--- 6024.0--2wx--21023.5 999.2 -0.2---------
2019-06-24 15:00:00 25.5 16.4 19.5--- 5721.0--2wx-821023.4 999.2 -0.1---------
2019-06-24 14:00:00 24.9 15.5 18.8--- 5624.0--2wx---1023.5 999.3 0.1---------
2019-06-24 13:00:00 24.5 15.4 18.6--- 5727.0--3wx---1023.7 999.4 0.6---------
2019-06-24 12:00:00 24.8 15.4 18.7--- 5624.0--3wx-831023.5 999.3 0.8- 0.06------
2019-06-24 11:00:00 24.2 15.4 18.5--- 5825.0--3wx--31023.5 999.2 1.0---------
2019-06-24 10:00:00 24.8 14.3 18.2--- 5220.0--3wx8831023.0 998.8 0.6---------
2019-06-24 09:00:00 25.1 14.5 18.4--- 5223.0--3wx-831022.7 998.5 0.5---------
2019-06-24 08:00:00 23.7 14.7 17.9--- 5727.0--3wx---1022.5 998.2 0.2---------
2019-06-24 07:00:00 23.1 14.6 17.6--- 5922.0--3wx--31022.6 998.2 0.5---------
2019-06-24 06:00:00 21.7 16.6 18.2 23.8 16.0 15 7319.0--3wx--31022.5 998.0 0.8- 0.012----- 8.6
2019-06-24 05:00:00 20.3 15.9 17.3--- 7623.0--2wx--21022.6 998.0 1.0---------
2019-06-24 04:00:00 17.9 14.8 15.8--- 8219.0--1wx--11022.5 997.7 0.9---------
2019-06-24 03:00:00 16.5 13.8 14.6--- 8422.0--2wx--21022.1 997.2 0.7---------
2019-06-24 02:00:00 16.5 13.8 14.6--- 8422.0--0---01021.9 997.0 0.8---------
2019-06-24 01:00:00 18.0 13.9 15.2--- 7725.0--1wx--11021.5 996.8 1.0---------
2019-06-24 00:00:00 18.5 14.0 15.5--- 7522.0--2wx--21021.2 996.5 1.0- 0.06------
2019-06-23 23:00:00 18.9 13.7 15.5--- 7224.0--2wx--21020.9 996.2 1.0---------
2019-06-23 22:00:00 19.8 13.9 15.9--- 6925.0--1wx---1020.4 995.8 0.9---------
2019-06-23 21:00:00 21.6 14.3 16.9--- 6324.0--1wx--11019.9 995.5 0.9---------
2019-06-23 20:00:00 22.3 14.2 17.1--- 6025.0--2wx--21019.5 995.2 1.2---------
2019-06-23 19:00:00 22.7 13.7 17.0--- 5728.0--1wx--11019.2 994.9 0.8---------
2019-06-23 18:00:00 23.8 13.9 17.5 27.2 19.3- 5425.0--2wx-921018.8 994.6 0.7- 0.012------
2019-06-23 17:00:00 25.5 14.0 18.3--- 4923.0--2wx--21018.1 994.0 -0.1---------
2019-06-23 16:00:00 25.2 13.7 18.0--- 4923.0--2wx---1018.2 994.1 -0.3---------
2019-06-23 15:00:00 26.8 13.5 18.5--- 4421.0--3wx8931017.8 993.9 -0.6---------
2019-06-23 14:00:00 26.1 14.2 18.6--- 4826.0--3wx-931018.1 994.1 -0.8---------
2019-06-23 13:00:00 25.9 13.4 18.1--- 4624.0--3wx8--1018.4 994.4 -0.5---------
2019-06-23 12:00:00 26.9 14.6 19.1--- 4720.0--3wx-731018.5 994.5 -0.3- 0.06------
2019-06-23 11:00:00 25.3 14.1 18.2--- 5025.0--3wx--31019.0 994.9 0.1---------
2019-06-23 10:00:00 24.0 15.0 18.2--- 5726.0--2wx--21019.1 994.9 0.1---------
2019-06-23 09:00:00 24.1 15.3 18.4--- 5821.0--2wx--21019.0 994.8 0.0---------
2019-06-23 08:00:00 23.5 14.2 17.6--- 5617.0--2wx--21019.0 994.8 0.2---------
2019-06-23 07:00:00 21.0 13.4 16.2--- 6220.0--3wx---1019.2 994.8 0.5---------
2019-06-23 06:00:00 19.5 13.0 15.3 23.3 16.6 17 6625.0--3wx--31019.4 994.8 0.4- 0.012----- 7.7
2019-06-23 05:00:00 17.6 13.1 14.6--- 7524.0--2wx--21019.3 994.6 0.5---------
2019-06-23 04:00:00 16.8 12.5 14.0--- 7624.0--3wx--31019.1 994.3 0.4---------
2019-06-23 03:00:00 16.8 12.9 14.2--- 7824.0--3wx--31019.2 994.4 0.2---------
2019-06-23 02:00:00 17.0 13.3 14.5--- 7921.0--3wx---1018.9 994.1 -0.5---------
2019-06-23 01:00:00 17.6 15.2 15.9--- 8616.0--3wx--31018.6 993.9 -0.6---------
2019-06-23 00:00:00 18.7 16.1 16.9--- 8516.0--1wx--11018.8 994.2 -0.4- 0.06------
1.7 ms

 

Print Friendly, PDF & Email